sensor_id;sensor_type;location;lat;lon;timestamp;pressure;altitude;pressure_sealevel;temperature;humidity
62418;BME280;48456;54.242;10.280;2022-12-05T00:00:04;101952.13;;;3.73;100.00
62418;BME280;48456;54.242;10.280;2022-12-05T00:02:33;101953.03;;;3.74;100.00
62418;BME280;48456;54.242;10.280;2022-12-05T00:05:00;101949.50;;;3.73;100.00
62418;BME280;48456;54.242;10.280;2022-12-05T00:07:27;101945.09;;;3.72;100.00
62418;BME280;48456;54.242;10.280;2022-12-05T00:09:53;101949.50;;;3.73;100.00
62418;BME280;48456;54.242;10.280;2022-12-05T00:12:20;101948.63;;;3.73;100.00
62418;BME280;48456;54.242;10.280;2022-12-05T00:14:46;101954.75;;;3.73;100.00
62418;BME280;48456;54.242;10.280;2022-12-05T00:17:12;101945.19;;;3.74;100.00
62418;BME280;48456;54.242;10.280;2022-12-05T00:19:38;101951.28;;;3.74;100.00
62418;BME280;48456;54.242;10.280;2022-12-05T00:22:05;101958.34;;;3.75;100.00
62418;BME280;48456;54.242;10.280;2022-12-05T00:24:31;101954.81;;;3.75;100.00
62418;BME280;48456;54.242;10.280;2022-12-05T00:26:57;101950.41;;;3.74;100.00
62418;BME280;48456;54.242;10.280;2022-12-05T00:29:24;101940.81;;;3.74;100.00
62418;BME280;48456;54.242;10.280;2022-12-05T00:31:50;101941.72;;;3.75;100.00
62418;BME280;48456;54.242;10.280;2022-12-05T00:34:16;101944.41;;;3.76;100.00
62418;BME280;48456;54.242;10.280;2022-12-05T00:36:43;101949.66;;;3.76;100.00
62418;BME280;48456;54.242;10.280;2022-12-05T00:39:09;101953.09;;;3.75;100.00
62418;BME280;48456;54.242;10.280;2022-12-05T00:41:36;101945.31;;;3.77;100.00
62418;BME280;48456;54.242;10.280;2022-12-05T00:44:02;101944.41;;;3.76;100.00
62418;BME280;48456;54.242;10.280;2022-12-05T00:46:29;101938.28;;;3.76;100.00
62418;BME280;48456;54.242;10.280;2022-12-05T00:48:57;101945.31;;;3.77;100.00
62418;BME280;48456;54.242;10.280;2022-12-05T00:53:52;101932.16;;;3.75;100.00
62418;BME280;48456;54.242;10.280;2022-12-05T00:56:19;101939.09;;;3.75;100.00
62418;BME280;48456;54.242;10.280;2022-12-05T00:58:46;101939.09;;;3.75;100.00
62418;BME280;48456;54.242;10.280;2022-12-05T01:01:20;101928.63;;;3.75;100.00
62418;BME280;48456;54.242;10.280;2022-12-05T01:03:47;101934.78;;;3.75;100.00
62418;BME280;48456;54.242;10.280;2022-12-05T01:06:14;101941.78;;;3.76;100.00
62418;BME280;48456;54.242;10.280;2022-12-05T01:08:41;101933.94;;;3.76;100.00
62418;BME280;48456;54.242;10.280;2022-12-05T01:11:07;101927.00;;;3.77;100.00
62418;BME280;48456;54.242;10.280;2022-12-05T01:13:34;101923.47;;;3.76;100.00
62418;BME280;48456;54.242;10.280;2022-12-05T01:16:01;101919.94;;;3.76;100.00
62418;BME280;48456;54.242;10.280;2022-12-05T01:18:28;101927.81;;;3.76;100.00
62418;BME280;48456;54.242;10.280;2022-12-05T01:20:55;101933.94;;;3.76;100.00
62418;BME280;48456;54.242;10.280;2022-12-05T01:23:21;101926.09;;;3.76;100.00
62418;BME280;48456;54.242;10.280;2022-12-05T01:25:49;101926.09;;;3.76;100.00
62418;BME280;48456;54.242;10.280;2022-12-05T01:28:16;101931.25;;;3.75;100.00
62418;BME280;48456;54.242;10.280;2022-12-05T01:30:43;101925.06;;;3.73;100.00
62418;BME280;48456;54.242;10.280;2022-12-05T01:33:10;101937.19;;;3.71;100.00
62418;BME280;48456;54.242;10.280;2022-12-05T01:35:37;101920.47;;;3.67;100.00
62418;BME280;48456;54.242;10.280;2022-12-05T01:38:03;101929.13;;;3.66;100.00
62418;BME280;48456;54.242;10.280;2022-12-05T01:40:30;101926.47;;;3.64;100.00
62418;BME280;48456;54.242;10.280;2022-12-05T01:42:57;101921.25;;;3.64;100.00
62418;BME280;48456;54.242;10.280;2022-12-05T01:45:31;101913.25;;;3.61;100.00
62418;BME280;48456;54.242;10.280;2022-12-05T01:47:59;101912.34;;;3.61;100.00
62418;BME280;48456;54.242;10.280;2022-12-05T01:50:27;101910.50;;;3.58;100.00
62418;BME280;48456;54.242;10.280;2022-12-05T01:52:53;101920.13;;;3.59;100.00
62418;BME280;48456;54.242;10.280;2022-12-05T01:55:20;101923.66;;;3.60;100.00
62418;BME280;48456;54.242;10.280;2022-12-05T01:57:46;101916.72;;;3.60;100.00
62418;BME280;48456;54.242;10.280;2022-12-05T02:00:15;101907.94;;;3.60;100.00
62418;BME280;48456;54.242;10.280;2022-12-05T02:02:46;101911.47;;;3.60;100.00
62418;BME280;48456;54.242;10.280;2022-12-05T02:05:16;101908.97;;;3.63;100.00
62418;BME280;48456;54.242;10.280;2022-12-05T02:07:42;101908.16;;;3.64;100.00
62418;BME280;48456;54.242;10.280;2022-12-05T02:10:10;101899.34;;;3.62;100.00
62418;BME280;48456;54.242;10.280;2022-12-05T02:12:36;101907.25;;;3.64;100.00
62418;BME280;48456;54.242;10.280;2022-12-05T02:23:22;101898.50;;;3.63;100.00
62418;BME280;48456;54.242;10.280;2022-12-05T02:25:59;101900.31;;;3.64;100.00
62418;BME280;48456;54.242;10.280;2022-12-05T02:29:00;101890.72;;;3.65;100.00
62418;BME280;48456;54.242;10.280;2022-12-05T02:34:09;101908.34;;;3.69;100.00
62418;BME280;48456;54.242;10.280;2022-12-05T02:36:39;101891.78;;;3.70;100.00
62418;BME280;48456;54.242;10.280;2022-12-05T02:39:13;101894.41;;;3.70;100.00
62418;BME280;48456;54.242;10.280;2022-12-05T02:41:56;101891.78;;;3.70;100.00
62418;BME280;48456;54.242;10.280;2022-12-05T02:44:31;101902.25;;;3.70;100.00
62418;BME280;48456;54.242;10.280;2022-12-05T02:46:58;101892.63;;;3.69;100.00
62418;BME280;48456;54.242;10.280;2022-12-05T02:49:27;101888.31;;;3.70;100.00
62418;BME280;48456;54.242;10.280;2022-12-05T02:51:56;101888.22;;;3.68;100.00
62418;BME280;48456;54.242;10.280;2022-12-05T02:54:24;101887.41;;;3.69;100.00
62418;BME280;48456;54.242;10.280;2022-12-05T02:56:52;101886.53;;;3.69;100.00
62418;BME280;48456;54.242;10.280;2022-12-05T02:59:19;101889.13;;;3.69;100.00
62418;BME280;48456;54.242;10.280;2022-12-05T03:01:49;101883.91;;;3.69;100.00
62418;BME280;48456;54.242;10.280;2022-12-05T03:04:15;101889.19;;;3.70;100.00
62418;BME280;48456;54.242;10.280;2022-12-05T03:07:25;101885.69;;;3.70;100.00
62418;BME280;48456;54.242;10.280;2022-12-05T03:09:43;101881.22;;;3.67;100.00
62418;BME280;48456;54.242;10.280;2022-12-05T03:14:43;101873.38;;;3.67;100.00
62418;BME280;48456;54.242;10.280;2022-12-05T03:17:14;101862.06;;;3.68;100.00
62418;BME280;48456;54.242;10.280;2022-12-05T03:19:46;101867.38;;;3.70;100.00
62418;BME280;48456;54.242;10.280;2022-12-05T03:22:18;101864.69;;;3.68;100.00
62418;BME280;48456;54.242;10.280;2022-12-05T03:24:45;101865.59;;;3.69;100.00
62418;BME280;48456;54.242;10.280;2022-12-05T03:27:21;101866.47;;;3.69;100.00
62418;BME280;48456;54.242;10.280;2022-12-05T03:29:53;101875.22;;;3.70;100.00
62418;BME280;48456;54.242;10.280;2022-12-05T03:32:23;101861.22;;;3.69;100.00
62418;BME280;48456;54.242;10.280;2022-12-05T03:37:21;101871.69;;;3.69;100.00
62418;BME280;48456;54.242;10.280;2022-12-05T03:39:52;101862.97;;;3.69;100.00
62418;BME280;48456;54.242;10.280;2022-12-05T03:42:26;101850.75;;;3.69;100.00
62418;BME280;48456;54.242;10.280;2022-12-05T03:44:59;101857.66;;;3.67;100.00
62418;BME280;48456;54.242;10.280;2022-12-05T03:47:35;101849.88;;;3.69;100.00
62418;BME280;48456;54.242;10.280;2022-12-05T03:50:14;101845.47;;;3.68;100.00
62418;BME280;48456;54.242;10.280;2022-12-05T03:52:45;101848.97;;;3.68;100.00
62418;BME280;48456;54.242;10.280;2022-12-05T03:55:34;101847.19;;;3.67;100.00
62418;BME280;48456;54.242;10.280;2022-12-05T03:58:14;101847.13;;;3.66;100.00
62418;BME280;48456;54.242;10.280;2022-12-05T04:00:42;101844.53;;;3.66;100.00
62418;BME280;48456;54.242;10.280;2022-12-05T04:03:12;101843.59;;;3.65;100.00
62418;BME280;48456;54.242;10.280;2022-12-05T04:05:53;101845.34;;;3.64;100.00
62418;BME280;48456;54.242;10.280;2022-12-05T04:10:47;101840.13;;;3.64;100.00
62418;BME280;48456;54.242;10.280;2022-12-05T04:13:16;101836.59;;;3.64;100.00
62418;BME280;48456;54.242;10.280;2022-12-05T04:15:48;101838.25;;;3.62;100.00
62418;BME280;48456;54.242;10.280;2022-12-05T04:18:35;101840.81;;;3.60;100.00
62418;BME280;48456;54.242;10.280;2022-12-05T04:21:04;101833.84;;;3.61;100.00
62418;BME280;48456;54.242;10.280;2022-12-05T04:23:50;101844.31;;;3.61;100.00
62418;BME280;48456;54.242;10.280;2022-12-05T04:26:37;101837.25;;;3.58;100.00
62418;BME280;48456;54.242;10.280;2022-12-05T04:29:16;101834.63;;;3.58;100.00
62418;BME280;48456;54.242;10.280;2022-12-05T04:31:48;101837.25;;;3.58;100.00
62418;BME280;48456;54.242;10.280;2022-12-05T04:34:17;101830.16;;;3.56;100.00
62418;BME280;48456;54.242;10.280;2022-12-05T04:36:46;101834.56;;;3.57;100.00
62418;BME280;48456;54.242;10.280;2022-12-05T04:39:19;101841.56;;;3.58;100.00
62418;BME280;48456;54.242;10.280;2022-12-05T04:44:19;101834.56;;;3.57;100.00
62418;BME280;48456;54.242;10.280;2022-12-05T04:46:46;101832.91;;;3.59;100.00
62418;BME280;48456;54.242;10.280;2022-12-05T04:49:16;101837.25;;;3.58;100.00
62418;BME280;48456;54.242;10.280;2022-12-05T04:51:45;101831.94;;;3.57;100.00
62418;BME280;48456;54.242;10.280;2022-12-05T04:54:14;101838.94;;;3.58;100.00
62418;BME280;48456;54.242;10.280;2022-12-05T04:56:42;101836.34;;;3.58;100.00
62418;BME280;48456;54.242;10.280;2022-12-05T04:59:10;101846.00;;;3.59;100.00
62418;BME280;48456;54.242;10.280;2022-12-05T05:01:38;101841.56;;;3.58;100.00
62418;BME280;48456;54.242;10.280;2022-12-05T05:06:35;101845.16;;;3.60;100.00
62418;BME280;48456;54.242;10.280;2022-12-05T05:09:02;101849.47;;;3.59;100.00
62418;BME280;48456;54.242;10.280;2022-12-05T05:11:29;101840.75;;;3.59;100.00
62418;BME280;48456;54.242;10.280;2022-12-05T05:13:57;101839.84;;;3.58;100.00
62418;BME280;48456;54.242;10.280;2022-12-05T05:16:25;101844.19;;;3.58;100.00
62418;BME280;48456;54.242;10.280;2022-12-05T05:18:51;101841.56;;;3.58;100.00
62418;BME280;48456;54.242;10.280;2022-12-05T05:21:28;101843.38;;;3.59;100.00
62418;BME280;48456;54.242;10.280;2022-12-05T05:23:55;101843.44;;;3.60;100.00
62418;BME280;48456;54.242;10.280;2022-12-05T05:26:21;101847.69;;;3.58;100.00
62418;BME280;48456;54.242;10.280;2022-12-05T05:28:48;101850.38;;;3.60;100.00
62418;BME280;48456;54.242;10.280;2022-12-05T05:31:15;101850.38;;;3.60;100.00
62418;BME280;48456;54.242;10.280;2022-12-05T05:33:42;101850.38;;;3.60;100.00
62418;BME280;48456;54.242;10.280;2022-12-05T05:36:09;101846.06;;;3.60;100.00
62418;BME280;48456;54.242;10.280;2022-12-05T05:38:37;101849.56;;;3.61;100.00
62418;BME280;48456;54.242;10.280;2022-12-05T05:41:04;101846.09;;;3.62;100.00
62418;BME280;48456;54.242;10.280;2022-12-05T05:43:31;101851.41;;;3.63;100.00
62418;BME280;48456;54.242;10.280;2022-12-05T05:45:57;101852.31;;;3.64;100.00
62418;BME280;48456;54.242;10.280;2022-12-05T05:48:23;101853.22;;;3.64;100.00
62418;BME280;48456;54.242;10.280;2022-12-05T05:50:50;101857.66;;;3.67;100.00
62418;BME280;48456;54.242;10.280;2022-12-05T05:53:16;101847.28;;;3.69;100.00
62418;BME280;48456;54.242;10.280;2022-12-05T05:55:42;101849.06;;;3.70;100.00
62418;BME280;48456;54.242;10.280;2022-12-05T05:58:09;101845.59;;;3.71;100.00
62418;BME280;48456;54.242;10.280;2022-12-05T06:00:35;101851.72;;;3.71;100.00
62418;BME280;48456;54.242;10.280;2022-12-05T06:03:01;101851.81;;;3.73;100.00
62418;BME280;48456;54.242;10.280;2022-12-05T06:05:28;101851.84;;;3.74;100.00
62418;BME280;48456;54.242;10.280;2022-12-05T06:07:54;101855.34;;;3.75;100.00
62418;BME280;48456;54.242;10.280;2022-12-05T06:10:20;101845.78;;;3.75;100.00
62418;BME280;48456;54.242;10.280;2022-12-05T06:12:47;101852.88;;;3.78;100.00
62418;BME280;48456;54.242;10.280;2022-12-05T06:15:13;101854.59;;;3.77;100.00
62418;BME280;48456;54.242;10.280;2022-12-05T06:17:39;101853.75;;;3.79;100.00
62418;BME280;48456;54.242;10.280;2022-12-05T06:20:06;101858.19;;;3.80;100.00
62418;BME280;48456;54.242;10.280;2022-12-05T06:22:33;101859.03;;;3.80;100.00
62418;BME280;48456;54.242;10.280;2022-12-05T06:24:59;101856.50;;;3.82;100.00
62418;BME280;48456;54.242;10.280;2022-12-05T06:27:27;101846.03;;;3.82;100.00
62418;BME280;48456;54.242;10.280;2022-12-05T06:29:54;101853.03;;;3.83;100.00
62418;BME280;48456;54.242;10.280;2022-12-05T06:32:21;101845.25;;;3.84;100.00
62418;BME280;48456;54.242;10.280;2022-12-05T06:34:47;101846.22;;;3.86;100.00
62418;BME280;48456;54.242;10.280;2022-12-05T06:37:13;101846.22;;;3.86;100.00
62418;BME280;48456;54.242;10.280;2022-12-05T06:39:40;101840.22;;;3.89;100.00
62418;BME280;48456;54.242;10.280;2022-12-05T06:42:06;101840.22;;;3.89;100.00
62418;BME280;48456;54.242;10.280;2022-12-05T06:44:32;101840.28;;;3.90;100.00
62418;BME280;48456;54.242;10.280;2022-12-05T06:46:58;101839.44;;;3.92;100.00
62418;BME280;48456;54.242;10.280;2022-12-05T06:49:25;101839.50;;;3.93;100.00
62418;BME280;48456;54.242;10.280;2022-12-05T06:52:03;101833.44;;;3.94;100.00
62418;BME280;48456;54.242;10.280;2022-12-05T06:54:29;101829.09;;;3.95;100.00
62418;BME280;48456;54.242;10.280;2022-12-05T06:56:55;101837.03;;;3.96;100.00
62418;BME280;48456;54.242;10.280;2022-12-05T06:59:21;101837.06;;;3.98;100.00
62418;BME280;48456;54.242;10.280;2022-12-05T07:01:48;101836.25;;;3.99;100.00
62418;BME280;48456;54.242;10.280;2022-12-05T07:04:19;101833.66;;;4.00;100.00
62418;BME280;48456;54.242;10.280;2022-12-05T07:06:46;101830.22;;;4.01;100.00
62418;BME280;48456;54.242;10.280;2022-12-05T07:09:20;101832.00;;;4.02;100.00
62418;BME280;48456;54.242;10.280;2022-12-05T07:11:50;101841.56;;;4.02;100.00
62418;BME280;48456;54.242;10.280;2022-12-05T07:14:16;101835.47;;;4.01;100.00
62418;BME280;48456;54.242;10.280;2022-12-05T07:17:03;101836.34;;;4.02;100.00
62418;BME280;48456;54.242;10.280;2022-12-05T07:19:29;101838.97;;;4.02;100.00
62418;BME280;48456;54.242;10.280;2022-12-05T07:21:56;101836.41;;;4.03;100.00
62418;BME280;48456;54.242;10.280;2022-12-05T07:24:22;101837.31;;;4.04;100.00
62418;BME280;48456;54.242;10.280;2022-12-05T07:26:48;101846.03;;;4.05;100.00
62418;BME280;48456;54.242;10.280;2022-12-05T07:29:15;101840.81;;;4.05;100.00
62418;BME280;48456;54.242;10.280;2022-12-05T07:31:41;101838.19;;;4.05;100.00
62418;BME280;48456;54.242;10.280;2022-12-05T07:34:07;101838.25;;;4.06;100.00
62418;BME280;48456;54.242;10.280;2022-12-05T07:36:33;101834.81;;;4.07;100.00
62418;BME280;48456;54.242;10.280;2022-12-05T07:39:00;101837.47;;;4.09;100.00
62418;BME280;48456;54.242;10.280;2022-12-05T07:41:27;101833.97;;;4.08;100.00
62418;BME280;48456;54.242;10.280;2022-12-05T07:43:55;101836.75;;;4.13;100.00
62418;BME280;48456;54.242;10.280;2022-12-05T07:46:22;101841.25;;;4.15;100.00
62418;BME280;48456;54.242;10.280;2022-12-05T07:48:49;101836.88;;;4.16;100.00
62418;BME280;48456;54.242;10.280;2022-12-05T07:51:16;101839.63;;;4.19;100.00
62418;BME280;48456;54.242;10.280;2022-12-05T07:53:42;101835.34;;;4.21;100.00
62418;BME280;48456;54.242;10.280;2022-12-05T07:56:13;101836.25;;;4.22;100.00
62418;BME280;48456;54.242;10.280;2022-12-05T07:58:42;101843.19;;;4.21;100.00
62418;BME280;48456;54.242;10.280;2022-12-05T08:01:10;101839.63;;;4.19;100.00
62418;BME280;48456;54.242;10.280;2022-12-05T08:03:37;101837.03;;;4.19;100.00
62418;BME280;48456;54.242;10.280;2022-12-05T08:06:04;101843.19;;;4.21;100.00
62418;BME280;48456;54.242;10.280;2022-12-05T08:08:31;101852.72;;;4.19;100.00
62418;BME280;48456;54.242;10.280;2022-12-05T08:11:04;101852.72;;;4.19;100.00
62418;BME280;48456;54.242;10.280;2022-12-05T08:13:32;101850.88;;;4.16;100.00
62418;BME280;48456;54.242;10.280;2022-12-05T08:16:05;101848.22;;;4.15;100.00
62418;BME280;48456;54.242;10.280;2022-12-05T08:18:32;101849.81;;;4.11;100.00
62418;BME280;48456;54.242;10.280;2022-12-05T08:21:02;101852.38;;;4.10;100.00
62418;BME280;48456;54.242;10.280;2022-12-05T08:23:29;101849.63;;;4.07;100.00
62418;BME280;48456;54.242;10.280;2022-12-05T08:25:59;101857.41;;;4.05;100.00
62418;BME280;48456;54.242;10.280;2022-12-05T08:28:26;101853.03;;;4.04;100.00
62418;BME280;48456;54.242;10.280;2022-12-05T08:30:52;101848.63;;;4.03;100.00
62418;BME280;48456;54.242;10.280;2022-12-05T08:33:18;101853.78;;;4.01;100.00
62418;BME280;48456;54.242;10.280;2022-12-05T08:35:45;101857.22;;;4.00;100.00
62418;BME280;48456;54.242;10.280;2022-12-05T08:38:11;101859.81;;;3.99;100.00
62418;BME280;48456;54.242;10.280;2022-12-05T08:40:37;101852.75;;;3.98;100.00
62418;BME280;48456;54.242;10.280;2022-12-05T08:43:04;101856.16;;;3.95;100.00
62418;BME280;48456;54.242;10.280;2022-12-05T08:45:30;101862.16;;;3.93;100.00
62418;BME280;48456;54.242;10.280;2022-12-05T08:47:56;101861.22;;;3.90;100.00
62418;BME280;48456;54.242;10.280;2022-12-05T08:50:22;101856.88;;;3.91;100.00
62418;BME280;48456;54.242;10.280;2022-12-05T08:52:49;101852.47;;;3.90;100.00
62418;BME280;48456;54.242;10.280;2022-12-05T08:55:15;101856.63;;;3.85;100.00
62418;BME280;48456;54.242;10.280;2022-12-05T08:57:41;101862.69;;;3.84;100.00
62418;BME280;48456;54.242;10.280;2022-12-05T09:00:08;101859.88;;;3.79;100.00
62418;BME280;48456;54.242;10.280;2022-12-05T09:02:34;101859.81;;;3.77;100.00
62418;BME280;48456;54.242;10.280;2022-12-05T09:05:01;101851.84;;;3.74;100.00
62418;BME280;48456;54.242;10.280;2022-12-05T09:07:47;101857.03;;;3.73;100.00
62418;BME280;48456;54.242;10.280;2022-12-05T09:10:13;101859.44;;;3.68;100.00
62418;BME280;48456;54.242;10.280;2022-12-05T09:12:40;101871.63;;;3.68;100.00
62418;BME280;48456;54.242;10.280;2022-12-05T09:15:06;101863.66;;;3.64;100.00
62418;BME280;48456;54.242;10.280;2022-12-05T09:17:33;101854.00;;;3.63;100.00
62418;BME280;48456;54.242;10.280;2022-12-05T09:19:59;101862.63;;;3.61;100.00
62418;BME280;48456;54.242;10.280;2022-12-05T09:22:26;101860.91;;;3.61;100.00
62418;BME280;48456;54.242;10.280;2022-12-05T09:24:52;101854.00;;;3.63;100.00
62418;BME280;48456;54.242;10.280;2022-12-05T09:27:18;101861.00;;;3.63;100.00
62418;BME280;48456;54.242;10.280;2022-12-05T09:29:44;101867.03;;;3.62;100.00
62418;BME280;48456;54.242;10.280;2022-12-05T09:32:11;101848.69;;;3.60;100.00
62418;BME280;48456;54.242;10.280;2022-12-05T09:34:37;101870.47;;;3.61;100.00
62418;BME280;48456;54.242;10.280;2022-12-05T09:37:04;101865.94;;;3.57;100.00
62418;BME280;48456;54.242;10.280;2022-12-05T09:39:50;101861.56;;;3.56;100.00
62418;BME280;48456;54.242;10.280;2022-12-05T09:52:40;101855.56;;;3.58;100.00
62418;BME280;48456;54.242;10.280;2022-12-05T09:55:18;101864.31;;;3.59;100.00
62418;BME280;48456;54.242;10.280;2022-12-05T09:57:51;101864.31;;;3.59;100.00
62418;BME280;48456;54.242;10.280;2022-12-05T10:00:19;101855.56;;;3.58;100.00
62418;BME280;48456;54.242;10.280;2022-12-05T10:03:01;101847.78;;;3.60;100.00
62418;BME280;48456;54.242;10.280;2022-12-05T10:05:34;101854.72;;;3.59;100.00
62418;BME280;48456;54.242;10.280;2022-12-05T10:11:12;101854.66;;;3.58;100.00
62418;BME280;48456;54.242;10.280;2022-12-05T10:16:04;101852.09;;;3.59;100.00
62418;BME280;48456;54.242;10.280;2022-12-05T10:18:39;101850.38;;;3.60;100.00
62418;BME280;48456;54.242;10.280;2022-12-05T10:23:34;101851.28;;;3.60;100.00
62418;BME280;48456;54.242;10.280;2022-12-05T10:26:24;101847.84;;;3.61;100.00
62418;BME280;48456;54.242;10.280;2022-12-05T10:28:55;101841.69;;;3.61;100.00
62418;BME280;48456;54.242;10.280;2022-12-05T10:31:24;101836.47;;;3.61;100.00
62418;BME280;48456;54.242;10.280;2022-12-05T10:33:57;101836.47;;;3.61;100.00
62418;BME280;48456;54.242;10.280;2022-12-05T10:36:26;101838.31;;;3.63;100.00
62418;BME280;48456;54.242;10.280;2022-12-05T10:38:52;101835.75;;;3.65;100.00
62418;BME280;48456;54.242;10.280;2022-12-05T10:41:19;101834.06;;;3.66;100.00
62418;BME280;48456;54.242;10.280;2022-12-05T10:43:45;101830.66;;;3.68;100.00
62418;BME280;48456;54.242;10.280;2022-12-05T10:46:12;101830.66;;;3.68;100.00
62418;BME280;48456;54.242;10.280;2022-12-05T10:48:42;101828.03;;;3.68;100.00
62418;BME280;48456;54.242;10.280;2022-12-05T10:51:15;101822.88;;;3.70;100.00
62418;BME280;48456;54.242;10.280;2022-12-05T10:53:49;101827.28;;;3.71;100.00
62418;BME280;48456;54.242;10.280;2022-12-05T10:59:00;101825.56;;;3.71;100.00
62418;BME280;48456;54.242;10.280;2022-12-05T11:01:27;101817.78;;;3.73;100.00
62418;BME280;48456;54.242;10.280;2022-12-05T11:03:58;101816.03;;;3.73;100.00
62418;BME280;48456;54.242;10.280;2022-12-05T11:08:52;101812.53;;;3.73;100.00
62418;BME280;48456;54.242;10.280;2022-12-05T11:11:34;101804.63;;;3.71;100.00
62418;BME280;48456;54.242;10.280;2022-12-05T11:14:03;101805.50;;;3.72;100.00
62418;BME280;48456;54.242;10.280;2022-12-05T11:21:43;101803.53;;;3.66;100.00
62418;BME280;48456;54.242;10.280;2022-12-05T11:26:45;101791.34;;;3.67;100.00
62418;BME280;48456;54.242;10.280;2022-12-05T11:29:31;101806.13;;;3.66;100.00
62418;BME280;48456;54.242;10.280;2022-12-05T11:31:58;101797.34;;;3.64;100.00
62418;BME280;48456;54.242;10.280;2022-12-05T11:34:46;101793.06;;;3.66;100.00
62418;BME280;48456;54.242;10.280;2022-12-05T11:37:17;101795.75;;;3.68;100.00
62418;BME280;48456;54.242;10.280;2022-12-05T11:39:45;101793.91;;;3.65;100.00
62418;BME280;48456;54.242;10.280;2022-12-05T11:50:27;101782.28;;;3.58;100.00
62418;BME280;48456;54.242;10.280;2022-12-05T11:55:44;101783.97;;;3.56;100.00
62418;BME280;48456;54.242;10.280;2022-12-05T11:58:22;101777.00;;;3.57;100.00
62418;BME280;48456;54.242;10.280;2022-12-05T12:17:06;101769.97;;;3.56;100.00
62418;BME280;48456;54.242;10.280;2022-12-05T12:19:39;101773.44;;;3.55;100.00
62418;BME280;48456;54.242;10.280;2022-12-05T12:27:39;101764.75;;;3.56;100.00
62418;BME280;48456;54.242;10.280;2022-12-05T12:30:14;101758.59;;;3.55;100.00
62418;BME280;48456;54.242;10.280;2022-12-05T12:35:25;101761.34;;;3.58;100.00
62418;BME280;48456;54.242;10.280;2022-12-05T12:40:46;101755.34;;;3.61;100.00
62418;BME280;48456;54.242;10.280;2022-12-05T12:46:21;101759.75;;;3.62;100.00
62418;BME280;48456;54.242;10.280;2022-12-05T12:49:10;101757.19;;;3.63;100.00
62418;BME280;48456;54.242;10.280;2022-12-05T12:51:43;101752.88;;;3.64;100.00
62418;BME280;48456;54.242;10.280;2022-12-05T12:54:17;101747.63;;;3.64;100.00
62418;BME280;48456;54.242;10.280;2022-12-05T12:57:12;101748.41;;;3.61;100.00
62418;BME280;48456;54.242;10.280;2022-12-05T13:00:10;101746.56;;;3.59;100.00
62418;BME280;48456;54.242;10.280;2022-12-05T13:05:07;101753.34;;;3.54;100.00
62418;BME280;48456;54.242;10.280;2022-12-05T13:07:43;101746.38;;;3.54;100.00
62418;BME280;48456;54.242;10.280;2022-12-05T13:10:13;101747.28;;;3.55;100.00
62418;BME280;48456;54.242;10.280;2022-12-05T13:12:43;101746.31;;;3.53;100.00
62418;BME280;48456;54.242;10.280;2022-12-05T13:15:11;101741.06;;;3.53;100.00
62418;BME280;48456;54.242;10.280;2022-12-05T13:17:39;101745.31;;;3.49;100.00
62418;BME280;48456;54.242;10.280;2022-12-05T13:20:13;101734.69;;;3.46;100.00
62418;BME280;48456;54.242;10.280;2022-12-05T13:22:39;101746.84;;;3.44;100.00
62418;BME280;48456;54.242;10.280;2022-12-05T13:25:06;101743.47;;;3.46;100.00
62418;BME280;48456;54.242;10.280;2022-12-05T13:27:37;101740.78;;;3.45;100.00
62418;BME280;48456;54.242;10.280;2022-12-05T13:30:03;101737.19;;;3.43;100.00
62418;BME280;48456;54.242;10.280;2022-12-05T13:32:38;101731.94;;;3.43;100.00
62418;BME280;48456;54.242;10.280;2022-12-05T13:35:09;101734.53;;;3.41;100.00
62418;BME280;48456;54.242;10.280;2022-12-05T13:37:36;101725.78;;;3.41;100.00
62418;BME280;48456;54.242;10.280;2022-12-05T13:40:29;101730.13;;;3.40;100.00
62418;BME280;48456;54.242;10.280;2022-12-05T13:43:16;101731.91;;;3.41;100.00
62418;BME280;48456;54.242;10.280;2022-12-05T13:45:53;101732.78;;;3.42;100.00
62418;BME280;48456;54.242;10.280;2022-12-05T13:48:23;101728.47;;;3.42;100.00
62418;BME280;48456;54.242;10.280;2022-12-05T13:50:57;101725.91;;;3.44;100.00
62418;BME280;48456;54.242;10.280;2022-12-05T13:55:55;101733.81;;;3.45;100.00
62418;BME280;48456;54.242;10.280;2022-12-05T14:00:47;101739.06;;;3.45;100.00
62418;BME280;48456;54.242;10.280;2022-12-05T14:05:50;101733.88;;;3.47;100.00
62418;BME280;48456;54.242;10.280;2022-12-05T14:15:43;101740.72;;;3.43;100.00
62418;BME280;48456;54.242;10.280;2022-12-05T14:18:21;101735.41;;;3.42;100.00
62418;BME280;48456;54.242;10.280;2022-12-05T14:21:12;101733.69;;;3.42;100.00
62418;BME280;48456;54.242;10.280;2022-12-05T14:34:23;101726.91;;;3.47;100.00
62418;BME280;48456;54.242;10.280;2022-12-05T14:37:02;101724.78;;;3.60;100.00
62418;BME280;48456;54.242;10.280;2022-12-05T14:39:33;101724.38;;;3.72;100.00
62418;BME280;48456;54.242;10.280;2022-12-05T14:42:00;101720.97;;;3.74;100.00
62418;BME280;48456;54.242;10.280;2022-12-05T14:44:28;101717.44;;;3.72;100.00
62418;BME280;48456;54.242;10.280;2022-12-05T14:47:00;101723.72;;;3.77;100.00
62418;BME280;48456;54.242;10.280;2022-12-05T14:52:18;101720.25;;;3.79;100.00
62418;BME280;48456;54.242;10.280;2022-12-05T14:54:44;101715.34;;;3.86;100.00
62418;BME280;48456;54.242;10.280;2022-12-05T14:57:12;101722.06;;;3.80;100.00
62418;BME280;48456;54.242;10.280;2022-12-05T14:59:47;101717.63;;;3.77;100.00
62418;BME280;48456;54.242;10.280;2022-12-05T15:02:19;101720.03;;;3.72;100.00